createdAt,value
2022-08-16T00:01:40.634Z,20.46
2022-08-16T00:04:09.707Z,20.44
2022-08-16T00:06:39.488Z,20.45
2022-08-16T00:09:06.787Z,20.42
2022-08-16T00:11:33.980Z,20.41
2022-08-16T00:14:01.420Z,20.34
2022-08-16T00:17:00.987Z,20.35
2022-08-16T00:19:24.895Z,20.37
2022-08-16T00:22:10.400Z,20.42
2022-08-16T00:24:40.393Z,20.42
2022-08-16T00:27:17.690Z,20.42
2022-08-16T00:30:08.780Z,20.41
2022-08-16T00:32:39.351Z,20.42
2022-08-16T00:35:14.957Z,20.40
2022-08-16T00:37:58.668Z,20.37
2022-08-16T00:40:34.045Z,20.30
2022-08-16T00:43:19.266Z,20.29
2022-08-16T00:46:22.399Z,20.26
2022-08-16T00:48:49.190Z,20.27
2022-08-16T00:51:19.532Z,20.22
2022-08-16T00:53:49.012Z,20.13
2022-08-16T00:56:20.106Z,20.06
2022-08-16T00:59:06.599Z,19.99
2022-08-16T01:01:35.904Z,19.91
2022-08-16T01:04:05.440Z,19.84
2022-08-16T01:06:49.365Z,19.77
2022-08-16T01:09:25.255Z,19.69
2022-08-16T01:12:01.628Z,19.66
2022-08-16T01:14:31.696Z,19.61
2022-08-16T01:16:58.790Z,19.54
2022-08-16T01:19:36.296Z,19.54
2022-08-16T01:22:49.607Z,19.45
2022-08-16T01:24:59.159Z,19.37
2022-08-16T01:27:31.111Z,19.34
2022-08-16T01:30:20.282Z,19.35
2022-08-16T01:33:01.972Z,19.30
2022-08-16T01:35:36.848Z,19.18
2022-08-16T01:38:19.403Z,19.14
2022-08-16T01:40:47.806Z,19.09
2022-08-16T01:43:15.095Z,19.08
2022-08-16T01:45:43.488Z,19.04
2022-08-16T01:48:19.764Z,18.98
2022-08-16T01:51:09.100Z,18.88
2022-08-16T01:53:40.666Z,18.83
2022-08-16T01:56:23.336Z,18.77
2022-08-16T01:58:55.159Z,18.74
2022-08-16T02:01:25.971Z,18.70
2022-08-16T02:03:53.214Z,18.69
2022-08-16T02:06:34.620Z,18.68
2022-08-16T02:09:05.602Z,18.61
2022-08-16T02:11:48.184Z,18.56
2022-08-16T02:14:22.557Z,18.51
2022-08-16T02:16:56.399Z,18.47
2022-08-16T02:19:23.601Z,18.42
2022-08-16T02:22:07.790Z,18.43
2022-08-16T02:24:40.895Z,18.40
2022-08-16T02:27:08.783Z,18.39
2022-08-16T02:29:35.698Z,18.40
2022-08-16T02:32:50.260Z,18.41
2022-08-16T02:34:50.707Z,18.42
2022-08-16T02:37:24.240Z,18.45
2022-08-16T02:40:11.702Z,18.55
2022-08-16T02:42:38.667Z,18.56
2022-08-16T02:45:07.824Z,18.57
2022-08-16T02:48:01.827Z,18.56
2022-08-16T02:50:54.854Z,18.57
2022-08-16T02:53:12.313Z,18.56
2022-08-16T02:55:40.448Z,18.58
2022-08-16T02:58:09.047Z,18.60
2022-08-16T03:00:36.306Z,18.60
2022-08-16T03:03:05.349Z,18.62
2022-08-16T03:05:37.998Z,18.67
2022-08-16T03:08:51.124Z,18.68
2022-08-16T03:10:54.850Z,18.70
2022-08-16T03:13:26.795Z,18.72
2022-08-16T03:15:53.716Z,18.73
2022-08-16T03:18:34.629Z,18.76
2022-08-16T03:21:10.162Z,18.79
2022-08-16T03:23:41.742Z,18.83
2022-08-16T03:26:11.110Z,18.83
2022-08-16T03:28:38.293Z,18.82
2022-08-16T03:31:07.252Z,18.86
2022-08-16T03:33:35.537Z,18.92
2022-08-16T03:36:30.427Z,18.98
2022-08-16T03:38:55.197Z,19.07
2022-08-16T03:41:25.429Z,19.14
2022-08-16T03:43:58.514Z,19.23
2022-08-16T03:46:45.103Z,19.34
2022-08-16T03:49:18.220Z,19.46
2022-08-16T03:51:52.036Z,19.54
2022-08-16T03:54:28.605Z,19.61
2022-08-16T03:56:58.672Z,19.63
2022-08-16T03:59:29.635Z,19.76
2022-08-16T04:01:59.534Z,19.82
2022-08-16T04:04:33.572Z,19.92
2022-08-16T04:07:05.824Z,20.01
2022-08-16T04:09:41.148Z,20.09
2022-08-16T04:12:11.137Z,20.21
2022-08-16T04:14:57.371Z,20.30
2022-08-16T04:17:26.920Z,20.39
2022-08-16T04:19:58.372Z,20.49
2022-08-16T04:22:27.942Z,20.57
2022-08-16T04:25:00.753Z,20.62
2022-08-16T04:27:34.589Z,20.61
2022-08-16T04:30:10.864Z,20.65
2022-08-16T04:32:49.145Z,20.69
2022-08-16T04:35:20.067Z,20.83
2022-08-16T04:37:54.008Z,20.86
2022-08-16T04:40:27.651Z,21.01
2022-08-16T04:42:56.818Z,21.14
2022-08-16T04:45:35.984Z,21.24
2022-08-16T04:48:08.875Z,21.31
2022-08-16T04:50:45.736Z,21.42
2022-08-16T04:53:16.733Z,21.49
2022-08-16T04:55:53.040Z,21.53
2022-08-16T04:58:45.127Z,21.56
2022-08-16T05:01:11.744Z,21.64
2022-08-16T05:03:41.560Z,21.72
2022-08-16T05:06:09.609Z,21.77
2022-08-16T05:08:37.945Z,21.82
2022-08-16T05:11:22.762Z,21.81
2022-08-16T05:13:50.129Z,21.84
2022-08-16T05:16:24.088Z,21.83
2022-08-16T05:19:01.920Z,21.95
2022-08-16T05:21:38.180Z,22.03
2022-08-16T05:24:09.823Z,22.14
2022-08-16T05:26:43.076Z,22.27
2022-08-16T05:29:15.403Z,22.37
2022-08-16T05:31:59.738Z,22.52
2022-08-16T05:34:26.786Z,22.66
2022-08-16T05:36:58.638Z,22.77
2022-08-16T05:39:33.370Z,22.83
2022-08-16T05:42:04.956Z,22.84
2022-08-16T05:44:33.449Z,22.86
2022-08-16T05:47:01.372Z,22.90
2022-08-16T05:49:38.571Z,23.09
2022-08-16T05:52:10.570Z,23.19
2022-08-16T05:54:46.563Z,23.30
2022-08-16T05:57:17.487Z,23.34
2022-08-16T06:02:40.198Z,23.45
2022-08-16T06:05:24.505Z,23.43
2022-08-16T06:07:59.102Z,23.56
2022-08-16T06:10:33.524Z,23.57
2022-08-16T06:13:04.525Z,23.48
2022-08-16T06:15:32.307Z,23.52
2022-08-16T06:18:00.528Z,23.60
2022-08-16T06:20:35.694Z,23.72
2022-08-16T06:23:33.022Z,23.95
2022-08-16T06:26:07.571Z,24.13
2022-08-16T06:28:37.334Z,24.24
2022-08-16T06:31:12.478Z,24.32
2022-08-16T06:33:44.988Z,24.38
2022-08-16T06:36:15.414Z,24.47
2022-08-16T06:38:55.994Z,24.54
2022-08-16T06:41:49.051Z,24.50
2022-08-16T06:44:40.058Z,24.59
2022-08-16T06:47:24.676Z,24.73
2022-08-16T06:50:28.439Z,24.83
2022-08-16T06:53:01.082Z,24.95
2022-08-16T06:55:43.312Z,25.12
2022-08-16T06:58:22.721Z,25.30
2022-08-16T07:01:09.997Z,25.41
2022-08-16T07:03:55.526Z,25.52
2022-08-16T07:06:31.604Z,25.49
2022-08-16T07:09:09.670Z,25.52
2022-08-16T07:11:46.516Z,25.47
2022-08-16T07:14:27.619Z,25.35
2022-08-16T07:16:58.989Z,25.38
2022-08-16T07:20:01.476Z,25.47
2022-08-16T07:22:47.682Z,25.59
2022-08-16T07:25:05.583Z,25.55
2022-08-16T07:27:33.742Z,25.60
2022-08-16T07:30:45.481Z,25.63
2022-08-16T07:32:55.550Z,25.63
2022-08-16T07:35:23.473Z,25.86
2022-08-16T07:37:51.069Z,26.19
2022-08-16T07:40:59.553Z,26.22
2022-08-16T07:43:24.800Z,26.22
2022-08-16T07:46:01.540Z,26.14
2022-08-16T07:48:31.988Z,26.12
2022-08-16T07:51:00.964Z,26.19
2022-08-16T07:53:32.389Z,26.52
2022-08-16T07:56:04.371Z,26.67
2022-08-16T07:58:38.718Z,26.56
2022-08-16T08:01:12.649Z,26.61
2022-08-16T08:03:49.548Z,26.76
2022-08-16T08:06:29.263Z,26.63
2022-08-16T08:09:02.317Z,26.66
2022-08-16T08:11:29.687Z,26.92
2022-08-16T08:14:03.768Z,27.21
2022-08-16T08:19:26.518Z,27.76
2022-08-16T08:21:59.950Z,27.57
2022-08-16T08:24:59.672Z,27.63
2022-08-16T08:27:33.172Z,27.75
2022-08-16T08:30:48.999Z,27.84
2022-08-16T08:32:59.447Z,27.78
2022-08-16T08:35:30.369Z,28.00
2022-08-16T08:37:58.911Z,28.31
2022-08-16T08:40:31.777Z,28.34
2022-08-16T08:43:11.714Z,28.29
2022-08-16T08:45:52.889Z,28.67
2022-08-16T08:48:34.918Z,28.81
2022-08-16T08:51:09.154Z,28.87
2022-08-16T08:53:47.076Z,29.39
2022-08-16T08:56:34.743Z,29.36
2022-08-16T08:59:23.686Z,29.55
2022-08-16T09:01:58.633Z,29.55
2022-08-16T09:04:31.716Z,29.62
2022-08-16T09:07:01.995Z,29.98
2022-08-16T09:09:33.753Z,30.44
2022-08-16T09:12:07.006Z,30.27
2022-08-16T09:14:50.785Z,30.72
2022-08-16T09:17:51.523Z,30.81
2022-08-16T09:20:17.570Z,31.17
2022-08-16T09:22:51.465Z,31.62
2022-08-16T09:25:26.110Z,32.10
2022-08-16T09:27:57.984Z,32.25
2022-08-16T09:30:42.890Z,32.45
2022-08-16T09:33:19.759Z,32.01
2022-08-16T09:35:47.440Z,32.43
2022-08-16T09:38:31.738Z,32.90
2022-08-16T09:41:00.383Z,33.14
2022-08-16T09:43:58.807Z,33.31
2022-08-16T09:46:33.343Z,33.50
2022-08-16T09:49:03.854Z,33.46
2022-08-16T09:51:36.631Z,33.09
2022-08-16T09:54:04.630Z,33.09
2022-08-16T09:56:32.687Z,33.24
2022-08-16T09:59:05.230Z,33.64
2022-08-16T10:01:36.583Z,33.56
2022-08-16T10:04:07.494Z,33.87
2022-08-16T10:06:52.697Z,33.53
2022-08-16T10:09:20.390Z,33.84
2022-08-16T10:12:11.599Z,33.99
2022-08-16T10:14:46.413Z,33.81
2022-08-16T10:17:13.657Z,33.38
2022-08-16T10:19:41.703Z,32.92
2022-08-16T10:22:12.639Z,33.44
2022-08-16T10:24:40.608Z,33.66
2022-08-16T10:27:29.727Z,33.83
2022-08-16T10:30:00.144Z,33.99
2022-08-16T10:32:32.231Z,34.29
2022-08-16T10:34:59.857Z,34.14
2022-08-16T10:37:32.697Z,33.94
2022-08-16T10:40:29.520Z,34.36
2022-08-16T10:42:55.660Z,34.83
2022-08-16T10:45:22.987Z,34.81
2022-08-16T10:48:00.507Z,34.25
2022-08-16T10:50:30.326Z,34.30
2022-08-16T10:52:59.435Z,34.85
2022-08-16T10:55:45.113Z,34.33
2022-08-16T10:58:16.936Z,34.91
2022-08-16T11:00:46.279Z,34.72
2022-08-16T11:06:03.277Z,35.26
2022-08-16T11:08:36.613Z,35.79
2022-08-16T11:11:14.174Z,36.39
2022-08-16T11:14:06.104Z,36.67
2022-08-16T11:19:22.662Z,35.15
2022-08-16T11:24:44.746Z,34.82
2022-08-16T11:27:22.858Z,35.69
2022-08-16T11:29:51.947Z,36.71
2022-08-16T11:32:20.182Z,37.19
2022-08-16T11:35:10.795Z,37.34
2022-08-16T11:38:06.113Z,37.68
2022-08-16T11:40:32.532Z,38.46
2022-08-16T11:43:01.471Z,38.38
2022-08-16T11:45:33.953Z,35.95
2022-08-16T11:48:07.492Z,35.14
2022-08-16T11:50:40.967Z,33.91
2022-08-16T11:53:08.543Z,32.97
2022-08-16T11:55:37.988Z,33.53
2022-08-16T11:58:07.400Z,33.64
2022-08-16T12:00:50.700Z,32.70
2022-08-16T12:03:18.640Z,31.98
2022-08-16T12:05:46.579Z,32.60
2022-08-16T12:08:19.770Z,34.31
2022-08-16T12:10:53.006Z,35.52
2022-08-16T12:13:21.267Z,36.27
2022-08-16T12:15:48.360Z,36.57
2022-08-16T12:18:20.942Z,37.12
2022-08-16T12:20:48.865Z,37.29
2022-08-16T12:23:15.932Z,37.03
2022-08-16T12:25:44.376Z,37.26
2022-08-16T12:28:11.696Z,37.91
2022-08-16T12:30:40.314Z,37.77
2022-08-16T12:33:11.669Z,38.45
2022-08-16T12:35:39.225Z,38.65
2022-08-16T12:38:35.806Z,38.63
2022-08-16T12:40:55.702Z,38.81
2022-08-16T12:43:25.618Z,39.48
2022-08-16T12:45:55.913Z,39.63
2022-08-16T12:48:43.043Z,39.26
2022-08-16T12:51:19.381Z,39.51
2022-08-16T12:53:47.585Z,40.16
2022-08-16T12:56:14.798Z,40.54
2022-08-16T12:58:50.012Z,40.54
2022-08-16T13:01:19.521Z,39.23
2022-08-16T13:04:03.295Z,39.38
2022-08-16T13:06:37.965Z,39.80
2022-08-16T13:09:18.387Z,40.55
2022-08-16T13:11:55.133Z,41.01
2022-08-16T13:14:31.206Z,41.18
2022-08-16T13:17:01.122Z,41.55
2022-08-16T13:19:55.958Z,41.22
2022-08-16T13:22:18.627Z,40.88
2022-08-16T13:24:46.973Z,40.78
2022-08-16T13:27:14.545Z,41.05
2022-08-16T13:29:44.820Z,40.98
2022-08-16T13:32:39.797Z,41.12
2022-08-16T13:34:59.025Z,38.46
2022-08-16T13:37:32.384Z,35.96
2022-08-16T13:40:07.461Z,36.22
2022-08-16T13:42:41.199Z,36.87
2022-08-16T13:45:15.493Z,37.35
2022-08-16T13:47:44.631Z,38.41
2022-08-16T13:50:18.216Z,39.14
2022-08-16T13:52:58.893Z,39.64
2022-08-16T13:55:26.813Z,40.32
2022-08-16T13:58:35.352Z,40.45
2022-08-16T14:00:52.791Z,40.77
2022-08-16T14:03:38.785Z,40.95
2022-08-16T14:06:10.748Z,41.11
2022-08-16T14:08:41.918Z,41.05
2022-08-16T14:11:12.530Z,40.94
2022-08-16T14:13:40.002Z,40.69
2022-08-16T14:16:12.467Z,40.32
2022-08-16T14:18:53.386Z,40.27
2022-08-16T14:24:07.897Z,39.94
2022-08-16T14:26:50.379Z,40.01
2022-08-16T14:31:53.577Z,39.96
2022-08-16T14:34:21.619Z,39.61
2022-08-16T14:36:53.347Z,39.04
2022-08-16T14:39:22.191Z,39.09
2022-08-16T14:41:53.678Z,39.22
2022-08-16T14:44:23.655Z,39.49
2022-08-16T14:46:53.016Z,39.51
2022-08-16T14:49:20.221Z,39.30
2022-08-16T14:51:48.915Z,39.28
2022-08-16T14:54:16.038Z,38.83
2022-08-16T14:59:34.437Z,38.90
2022-08-16T15:02:17.293Z,38.23
2022-08-16T15:05:11.182Z,37.89
2022-08-16T15:07:40.213Z,37.70
2022-08-16T15:10:21.723Z,37.62
2022-08-16T15:12:56.249Z,37.45
2022-08-16T15:15:26.943Z,37.24
2022-08-16T15:17:56.742Z,37.07
2022-08-16T15:20:29.412Z,36.91
2022-08-16T15:22:57.537Z,36.41
2022-08-16T15:25:29.292Z,36.17
2022-08-16T15:28:05.387Z,35.81
2022-08-16T15:30:58.347Z,35.70
2022-08-16T15:33:27.673Z,35.10
2022-08-16T15:35:55.411Z,33.85
2022-08-16T15:38:57.260Z,32.72
2022-08-16T15:41:27.636Z,31.84
2022-08-16T15:44:05.183Z,31.09
2022-08-16T15:46:54.593Z,30.50
2022-08-16T15:49:23.016Z,30.03
2022-08-16T15:51:54.111Z,29.80
2022-08-16T15:54:30.728Z,29.42
2022-08-16T15:57:09.649Z,29.05
2022-08-16T15:59:49.065Z,28.85
2022-08-16T16:02:29.395Z,28.59
2022-08-16T16:05:04.216Z,28.39
2022-08-16T16:07:56.676Z,28.19
2022-08-16T16:10:29.867Z,28.05
2022-08-16T16:12:58.467Z,27.91
2022-08-16T16:15:29.472Z,27.77
2022-08-16T16:17:59.313Z,27.66
2022-08-16T16:20:32.557Z,27.55
2022-08-16T16:23:02.681Z,27.51
2022-08-16T16:25:34.101Z,27.35
2022-08-16T16:28:01.262Z,27.17
2022-08-16T16:30:33.043Z,27.03
2022-08-16T16:33:05.275Z,26.99
2022-08-16T16:35:35.028Z,26.86
2022-08-16T16:38:02.038Z,26.77
2022-08-16T16:40:54.241Z,26.66
2022-08-16T16:43:25.751Z,26.52
2022-08-16T16:45:55.729Z,26.42
2022-08-16T16:48:22.710Z,26.37
2022-08-16T16:50:58.233Z,26.25
2022-08-16T16:53:31.631Z,26.12
2022-08-16T16:55:59.013Z,26.05
2022-08-16T16:58:53.364Z,25.93
2022-08-16T17:01:21.362Z,25.85
2022-08-16T17:04:03.945Z,25.79
2022-08-16T17:06:53.261Z,25.71
2022-08-16T17:09:24.667Z,25.68
2022-08-16T17:11:55.329Z,25.66
2022-08-16T17:14:32.964Z,25.55
2022-08-16T17:17:08.342Z,25.48
2022-08-16T17:19:40.324Z,25.44
2022-08-16T17:22:16.001Z,25.35
2022-08-16T17:24:53.981Z,25.32
2022-08-16T17:27:41.090Z,25.22
2022-08-16T17:30:15.033Z,25.16
2022-08-16T17:32:48.791Z,25.11
2022-08-16T17:35:19.509Z,25.07
2022-08-16T17:37:51.937Z,25.03
2022-08-16T17:40:46.818Z,24.92
2022-08-16T17:43:43.877Z,24.81
2022-08-16T17:46:50.851Z,24.73
2022-08-16T17:48:58.859Z,24.72
2022-08-16T17:51:27.730Z,24.67
2022-08-16T17:53:55.084Z,24.59
2022-08-16T17:56:22.109Z,24.55
2022-08-16T17:58:48.927Z,24.50
2022-08-16T18:01:16.077Z,24.48
2022-08-16T18:04:06.741Z,24.42
2022-08-16T18:06:30.298Z,24.37
2022-08-16T18:09:03.769Z,24.31
2022-08-16T18:11:41.173Z,24.28
2022-08-16T18:14:52.067Z,24.25
2022-08-16T18:17:08.786Z,24.25
2022-08-16T18:19:35.815Z,24.18
2022-08-16T18:22:20.955Z,24.17
2022-08-16T18:24:48.299Z,24.12
2022-08-16T18:27:26.426Z,24.12
2022-08-16T18:29:54.068Z,24.05
2022-08-16T18:32:22.077Z,24.03
2022-08-16T18:34:52.798Z,23.97
2022-08-16T18:37:22.659Z,23.86
2022-08-16T18:39:49.639Z,23.90
2022-08-16T18:42:16.577Z,23.81
2022-08-16T18:44:44.000Z,23.75
2022-08-16T18:47:11.111Z,23.76
2022-08-16T18:49:38.456Z,23.72
2022-08-16T18:52:09.082Z,23.66
2022-08-16T18:57:57.178Z,23.65
2022-08-16T19:00:26.311Z,23.61
2022-08-16T19:02:59.271Z,23.58
2022-08-16T19:05:32.280Z,23.49
2022-08-16T19:14:05.540Z,23.52
2022-08-16T19:19:34.836Z,23.43
2022-08-16T19:22:06.696Z,23.43
2022-08-16T19:24:33.899Z,23.42
2022-08-16T19:27:03.521Z,23.40
2022-08-16T19:29:55.730Z,23.39
2022-08-16T19:32:27.076Z,23.34
2022-08-16T19:34:57.383Z,23.35
2022-08-16T19:37:24.654Z,23.34
2022-08-16T19:39:52.206Z,23.31
2022-08-16T19:42:21.161Z,23.28
2022-08-16T19:44:48.546Z,23.22
2022-08-16T19:47:15.769Z,23.18
2022-08-16T19:49:46.602Z,23.15
2022-08-16T19:52:20.471Z,23.12
2022-08-16T19:54:48.057Z,23.08
2022-08-16T19:57:16.830Z,23.06
2022-08-16T19:59:44.162Z,23.03
2022-08-16T20:02:32.611Z,22.96
2022-08-16T20:05:04.448Z,22.93
2022-08-16T20:07:31.492Z,22.89
2022-08-16T20:09:58.805Z,22.81
2022-08-16T20:12:25.927Z,22.72
2022-08-16T20:14:52.788Z,22.62
2022-08-16T20:17:19.677Z,22.59
2022-08-16T20:19:47.450Z,22.57
2022-08-16T20:22:42.196Z,22.55
2022-08-16T20:25:09.847Z,22.48
2022-08-16T20:27:38.100Z,22.42
2022-08-16T20:30:13.422Z,22.36
2022-08-16T20:32:40.675Z,22.30
2022-08-16T20:35:08.807Z,22.24
2022-08-16T20:37:37.429Z,22.20
2022-08-16T20:40:28.370Z,22.16
2022-08-16T20:43:09.621Z,22.06
2022-08-16T20:45:37.345Z,22.04
2022-08-16T20:48:04.761Z,22.01
2022-08-16T20:50:31.789Z,21.95
2022-08-16T20:52:58.747Z,21.87
2022-08-16T20:55:25.842Z,21.82
2022-08-16T20:57:55.831Z,21.77
2022-08-16T21:00:23.090Z,21.73
2022-08-16T21:05:35.234Z,21.67
2022-08-16T21:08:07.016Z,21.60
2022-08-16T21:11:12.615Z,21.57
2022-08-16T21:13:42.868Z,21.51
2022-08-16T21:16:10.431Z,21.47
2022-08-16T21:18:40.174Z,21.46
2022-08-16T21:21:08.387Z,21.42
2022-08-16T21:23:35.467Z,21.38
2022-08-16T21:26:10.689Z,21.34
2022-08-16T21:28:42.885Z,21.31
2022-08-16T21:31:15.666Z,21.30
2022-08-16T21:33:43.466Z,21.23
2022-08-16T21:38:54.557Z,21.16
2022-08-16T21:41:21.707Z,21.12
2022-08-16T21:43:48.608Z,21.09
2022-08-16T21:46:15.967Z,21.07
2022-08-16T21:48:42.860Z,21.04
2022-08-16T21:51:12.255Z,20.99
2022-08-16T21:53:39.295Z,20.94
2022-08-16T21:56:06.373Z,20.88
2022-08-16T21:58:33.434Z,20.85
2022-08-16T22:01:00.755Z,20.81
2022-08-16T22:03:27.940Z,20.75
2022-08-16T22:06:11.678Z,20.71
2022-08-16T22:08:50.274Z,20.69
2022-08-16T22:11:24.164Z,20.62
2022-08-16T22:13:57.430Z,20.59
2022-08-16T22:16:31.117Z,20.57
2022-08-16T22:18:58.238Z,20.55
2022-08-16T22:21:25.246Z,20.51
2022-08-16T22:23:55.279Z,20.49
2022-08-16T22:26:31.796Z,20.42
2022-08-16T22:29:04.812Z,20.40
2022-08-16T22:31:32.385Z,20.37
2022-08-16T22:34:01.905Z,20.29
2022-08-16T22:36:29.828Z,20.26
2022-08-16T22:39:00.249Z,20.24
2022-08-16T22:41:28.121Z,20.26
2022-08-16T22:43:55.262Z,20.25
2022-08-16T22:46:22.156Z,20.23
2022-08-16T22:48:52.084Z,20.20
2022-08-16T22:51:19.822Z,20.18
2022-08-16T22:53:46.769Z,20.14
2022-08-16T22:56:15.703Z,20.12
2022-08-16T22:58:43.003Z,20.09
2022-08-16T23:01:10.322Z,20.08
2022-08-16T23:03:37.472Z,20.09
2022-08-16T23:06:05.180Z,20.03
2022-08-16T23:08:39.483Z,20.00
2022-08-16T23:11:11.278Z,19.99
2022-08-16T23:13:52.416Z,19.97
2022-08-16T23:16:33.459Z,19.93
2022-08-16T23:19:08.434Z,19.91
2022-08-16T23:21:37.320Z,19.87
2022-08-16T23:24:05.449Z,19.84
2022-08-16T23:29:24.523Z,19.71
2022-08-16T23:31:58.058Z,19.70
2022-08-16T23:34:25.907Z,19.70
2022-08-16T23:36:52.772Z,19.68
2022-08-16T23:39:19.628Z,19.63
2022-08-16T23:41:46.646Z,19.61
2022-08-16T23:44:55.743Z,19.59
2022-08-16T23:47:02.416Z,19.59
2022-08-16T23:49:57.261Z,19.60
2022-08-16T23:52:17.117Z,19.59
2022-08-16T23:54:43.994Z,19.55
2022-08-16T23:57:11.050Z,19.57
2022-08-16T23:59:52.207Z,19.57
